createdAt,value
2022-09-20T00:01:50.620Z,2.43
2022-09-20T00:04:19.128Z,1.70
2022-09-20T00:06:47.810Z,1.97
2022-09-20T00:09:16.644Z,1.50
2022-09-20T00:11:47.052Z,1.60
2022-09-20T00:14:15.819Z,1.70
2022-09-20T00:16:45.684Z,1.63
2022-09-20T00:19:22.248Z,1.53
2022-09-20T00:21:51.116Z,1.70
2022-09-20T00:24:19.739Z,1.63
2022-09-20T00:26:48.364Z,1.60
2022-09-20T00:29:17.024Z,1.80
2022-09-20T00:31:47.545Z,1.60
2022-09-20T00:34:33.655Z,1.23
2022-09-20T00:37:02.379Z,1.37
2022-09-20T00:39:31.709Z,1.77
2022-09-20T00:42:00.279Z,1.40
2022-09-20T00:44:48.955Z,1.93
2022-09-20T00:47:26.004Z,1.70
2022-09-20T00:49:59.726Z,2.30
2022-09-20T00:52:30.574Z,1.80
2022-09-20T00:55:00.347Z,1.50
2022-09-20T00:57:35.343Z,1.80
2022-09-20T01:00:07.487Z,2.00
2022-09-20T01:02:42.210Z,1.73
2022-09-20T01:05:12.307Z,1.80
2022-09-20T01:07:42.030Z,2.00
2022-09-20T01:10:10.702Z,1.80
2022-09-20T01:12:41.586Z,1.93
2022-09-20T01:15:12.419Z,1.47
2022-09-20T01:17:46.739Z,1.60
2022-09-20T01:20:23.990Z,1.60
2022-09-20T01:23:17.304Z,1.47
2022-09-20T01:26:11.081Z,1.70
2022-09-20T01:28:42.806Z,1.40
2022-09-20T01:31:18.725Z,1.57
2022-09-20T01:33:51.819Z,1.60
2022-09-20T01:36:26.035Z,1.30
2022-09-20T01:39:07.141Z,1.43
2022-09-20T01:41:41.141Z,1.53
2022-09-20T01:44:19.323Z,1.60
2022-09-20T01:46:54.218Z,1.37
2022-09-20T01:49:37.553Z,1.23
2022-09-20T01:52:38.877Z,1.10
2022-09-20T01:55:55.074Z,1.50
2022-09-20T01:59:22.736Z,1.33
2022-09-20T02:02:10.658Z,1.33
2022-09-20T02:05:06.921Z,1.60
2022-09-20T02:08:11.645Z,1.50
2022-09-20T02:10:59.585Z,1.60
2022-09-20T02:13:35.906Z,1.23
2022-09-20T02:16:23.164Z,1.43
2022-09-20T02:19:29.121Z,1.80
2022-09-20T02:22:25.185Z,1.77
2022-09-20T02:25:05.745Z,2.23
2022-09-20T02:27:48.372Z,1.80
2022-09-20T02:30:28.129Z,1.63
2022-09-20T02:33:14.164Z,1.80
2022-09-20T02:35:53.881Z,2.03
2022-09-20T02:38:37.945Z,1.70
2022-09-20T02:41:25.048Z,1.80
2022-09-20T02:44:02.412Z,2.20
2022-09-20T02:46:38.269Z,2.00
2022-09-20T02:49:15.939Z,1.90
2022-09-20T02:51:52.016Z,1.80
2022-09-20T02:54:33.676Z,1.83
2022-09-20T02:57:13.192Z,2.23
2022-09-20T02:59:47.664Z,2.13
2022-09-20T03:02:24.351Z,1.90
2022-09-20T03:05:07.648Z,2.00
2022-09-20T03:07:48.568Z,1.90
2022-09-20T03:10:26.520Z,1.73
2022-09-20T03:13:07.644Z,1.53
2022-09-20T03:15:47.255Z,1.57
2022-09-20T03:18:18.539Z,1.60
2022-09-20T03:20:59.915Z,1.67
2022-09-20T03:23:44.007Z,1.77
2022-09-20T03:26:26.063Z,1.87
2022-09-20T03:29:08.469Z,2.03
2022-09-20T03:32:00.963Z,1.77
2022-09-20T03:34:43.396Z,2.00
2022-09-20T03:37:27.405Z,1.40
2022-09-20T03:40:30.623Z,1.60
2022-09-20T03:43:05.483Z,1.60
2022-09-20T03:45:50.745Z,1.70
2022-09-20T03:49:02.711Z,1.53
2022-09-20T03:51:36.506Z,1.47
2022-09-20T03:54:36.058Z,1.40
2022-09-20T03:57:36.151Z,1.63
2022-09-20T04:00:26.455Z,1.83
2022-09-20T04:03:30.772Z,1.50
2022-09-20T04:06:10.947Z,1.70
2022-09-20T04:09:10.994Z,1.30
2022-09-20T04:11:49.047Z,1.50
2022-09-20T04:14:28.258Z,1.60
2022-09-20T04:17:03.027Z,1.40
2022-09-20T04:19:41.548Z,1.40
2022-09-20T04:22:11.225Z,1.53
2022-09-20T04:24:46.591Z,1.50
2022-09-20T04:27:21.751Z,1.30
2022-09-20T04:29:59.330Z,1.50
2022-09-20T04:32:34.734Z,1.23
2022-09-20T04:35:33.786Z,1.70
2022-09-20T04:38:05.731Z,2.00
2022-09-20T04:40:53.369Z,1.97
2022-09-20T04:44:06.693Z,1.93
2022-09-20T04:47:16.650Z,2.57
2022-09-20T04:50:24.257Z,2.60
2022-09-20T04:53:45.984Z,2.70
2022-09-20T04:56:22.889Z,3.23
2022-09-20T04:59:07.207Z,3.27
2022-09-20T05:02:17.047Z,2.87
2022-09-20T05:05:35.897Z,3.40
2022-09-20T05:08:41.814Z,3.53
2022-09-20T05:11:52.238Z,3.93
2022-09-20T05:14:48.129Z,4.10
2022-09-20T05:17:41.665Z,3.70
2022-09-20T05:20:45.162Z,4.63
2022-09-20T05:23:40.325Z,3.30
2022-09-20T05:26:13.879Z,3.27
2022-09-20T05:28:54.580Z,3.27
2022-09-20T05:31:31.867Z,3.43
2022-09-20T05:34:13.584Z,3.40
2022-09-20T05:36:52.177Z,4.07
2022-09-20T05:39:34.821Z,3.60
2022-09-20T05:42:19.169Z,4.23
2022-09-20T05:45:05.465Z,4.03
2022-09-20T05:47:41.612Z,4.20
2022-09-20T05:50:31.069Z,4.53
2022-09-20T05:53:10.349Z,4.37
2022-09-20T05:55:56.053Z,4.73
2022-09-20T05:58:37.093Z,4.23
2022-09-20T06:01:13.492Z,4.30
2022-09-20T06:03:45.780Z,4.17
2022-09-20T06:06:23.160Z,4.07
2022-09-20T06:09:24.700Z,4.03
2022-09-20T06:12:27.224Z,3.90
2022-09-20T06:15:03.416Z,3.73
2022-09-20T06:17:39.640Z,4.07
2022-09-20T06:20:22.285Z,4.13
2022-09-20T06:22:56.059Z,3.97
2022-09-20T06:25:30.102Z,4.07
2022-09-20T06:28:06.300Z,4.30
2022-09-20T06:30:38.085Z,4.20
2022-09-20T06:33:16.916Z,5.03
2022-09-20T06:35:52.380Z,3.77
2022-09-20T06:38:57.955Z,4.00
2022-09-20T06:41:28.549Z,4.20
2022-09-20T06:43:58.756Z,4.37
2022-09-20T06:46:29.023Z,4.40
2022-09-20T06:48:58.412Z,4.17
2022-09-20T06:51:29.363Z,4.07
2022-09-20T06:53:59.607Z,4.43
2022-09-20T06:56:31.827Z,4.60
2022-09-20T06:59:00.508Z,4.50
2022-09-20T07:01:30.625Z,3.87
2022-09-20T07:03:59.903Z,4.10
2022-09-20T07:06:29.468Z,3.50
2022-09-20T07:08:59.561Z,3.80
2022-09-20T07:11:28.856Z,3.77
2022-09-20T07:13:58.401Z,3.70
2022-09-20T07:16:27.544Z,3.50
2022-09-20T07:18:56.976Z,3.33
2022-09-20T07:21:25.989Z,3.70
2022-09-20T07:23:55.197Z,3.20
2022-09-20T07:26:27.175Z,3.30
2022-09-20T07:29:05.213Z,3.30
2022-09-20T07:31:39.326Z,3.27
2022-09-20T07:34:12.410Z,3.43
2022-09-20T07:36:44.626Z,3.33
2022-09-20T07:39:33.019Z,3.10
2022-09-20T07:42:06.741Z,3.70
2022-09-20T07:44:43.305Z,3.00
2022-09-20T07:47:21.214Z,3.30
2022-09-20T07:49:51.350Z,3.67
2022-09-20T07:52:22.550Z,3.73
2022-09-20T08:01:16.036Z,3.47
2022-09-20T08:04:05.409Z,3.10
2022-09-20T08:06:46.717Z,3.00
2022-09-20T08:09:43.009Z,3.10
2022-09-20T08:15:22.233Z,2.70
2022-09-20T08:18:08.041Z,2.33
2022-09-20T08:20:52.001Z,2.60
2022-09-20T08:29:50.300Z,2.63
2022-09-20T08:32:35.756Z,3.10
2022-09-20T08:35:06.977Z,2.47
2022-09-20T08:37:40.817Z,2.40
2022-09-20T08:40:23.159Z,2.20
2022-09-20T08:43:11.311Z,2.05
2022-09-20T08:45:52.184Z,2.25
2022-09-20T08:48:28.693Z,2.30
2022-09-20T08:50:59.063Z,1.27
2022-09-20T08:53:30.528Z,1.30
2022-09-20T08:56:00.697Z,1.60
2022-09-20T08:58:34.790Z,1.20
2022-09-20T09:01:22.672Z,2.30
2022-09-20T09:04:15.840Z,1.63
2022-09-20T09:07:20.910Z,1.75
2022-09-20T09:10:23.092Z,2.28
2022-09-20T09:13:36.637Z,1.83
2022-09-20T09:17:06.130Z,1.98
2022-09-20T09:20:30.867Z,1.90
2022-09-20T09:23:50.235Z,2.30
2022-09-20T09:26:52.183Z,2.42
2022-09-20T09:29:50.447Z,1.75
2022-09-20T09:32:33.435Z,1.80
2022-09-20T09:35:53.208Z,2.05
2022-09-20T09:42:41.004Z,1.80
2022-09-20T09:45:47.202Z,2.40
2022-09-20T09:48:23.620Z,2.00
2022-09-20T09:51:32.425Z,1.88
2022-09-20T09:54:21.463Z,2.10
2022-09-20T09:57:19.292Z,2.30
2022-09-20T10:00:27.350Z,1.90
2022-09-20T10:03:50.226Z,2.03
2022-09-20T10:06:29.210Z,2.10
2022-09-20T10:09:12.947Z,2.10
2022-09-20T10:12:04.222Z,1.67
2022-09-20T10:14:49.994Z,1.85
2022-09-20T10:17:35.542Z,2.08
2022-09-20T10:20:28.467Z,2.15
2022-09-20T10:23:39.423Z,2.42
2022-09-20T10:26:02.962Z,2.10
2022-09-20T10:28:51.027Z,2.22
2022-09-20T10:31:37.485Z,1.90
2022-09-20T10:34:22.348Z,2.25
2022-09-20T10:36:57.626Z,1.80
2022-09-20T10:39:32.328Z,1.95
2022-09-20T10:42:27.697Z,1.57
2022-09-20T10:45:08.597Z,2.20
2022-09-20T10:47:47.109Z,1.90
2022-09-20T10:50:29.573Z,1.60
2022-09-20T10:53:13.728Z,1.50
2022-09-20T10:55:49.188Z,1.38
2022-09-20T10:58:52.386Z,1.60
2022-09-20T11:01:30.766Z,1.35
2022-09-20T11:04:35.456Z,1.30
2022-09-20T11:07:13.353Z,1.63
2022-09-20T11:09:49.033Z,1.52
2022-09-20T11:12:23.619Z,2.78
2022-09-20T11:14:57.834Z,1.63
2022-09-20T11:17:33.800Z,2.00
2022-09-20T11:20:09.708Z,2.10
2022-09-20T11:22:44.804Z,1.63
2022-09-20T11:25:23.092Z,1.40
2022-09-20T11:27:59.700Z,1.38
2022-09-20T11:30:30.095Z,1.23
2022-09-20T11:33:07.716Z,1.38
2022-09-20T11:35:41.326Z,1.25
2022-09-20T11:38:16.012Z,1.20
2022-09-20T11:40:51.920Z,1.15
2022-09-20T11:43:21.471Z,1.20
2022-09-20T11:45:56.133Z,1.70
2022-09-20T11:48:30.263Z,1.85
2022-09-20T12:46:54.575Z,1.92
2022-09-20T12:49:53.282Z,2.05
2022-09-20T12:52:48.609Z,1.08
2022-09-20T12:55:33.953Z,0.70
2022-09-20T12:58:06.082Z,1.13
2022-09-20T13:00:39.157Z,1.10
2022-09-20T13:03:29.570Z,0.93
2022-09-20T13:06:24.313Z,1.13
2022-09-20T13:09:04.477Z,1.03
2022-09-20T13:11:40.445Z,1.30
2022-09-20T13:14:14.794Z,1.13
2022-09-20T13:16:52.533Z,1.27
2022-09-20T13:19:26.169Z,1.53
2022-09-20T13:21:58.693Z,1.53
2022-09-20T13:24:28.939Z,1.60
2022-09-20T13:27:02.704Z,1.70
2022-09-20T13:29:35.231Z,1.67
2022-09-20T13:32:17.627Z,1.60
2022-09-20T13:34:47.615Z,1.70
2022-09-20T13:37:23.715Z,1.42
2022-09-20T13:39:55.873Z,1.38
2022-09-20T13:42:24.753Z,1.10
2022-09-20T13:44:54.277Z,1.52
2022-09-20T13:47:25.765Z,1.58
2022-09-20T13:50:02.344Z,1.50
2022-09-20T13:52:33.166Z,1.52
2022-09-20T13:55:21.857Z,1.10
2022-09-20T13:57:50.400Z,1.50
2022-09-20T14:00:19.502Z,1.30
2022-09-20T14:02:50.465Z,1.10
2022-09-20T14:05:22.956Z,0.95
2022-09-20T14:07:52.534Z,0.90
2022-09-20T14:10:34.316Z,1.20
2022-09-20T14:13:05.105Z,1.02
2022-09-20T14:15:38.060Z,1.15
2022-09-20T14:18:08.899Z,1.55
2022-09-20T14:20:39.117Z,1.10
2022-09-20T14:23:07.736Z,1.27
2022-09-20T14:25:36.759Z,1.25
2022-09-20T14:28:19.956Z,1.13
2022-09-20T14:30:49.889Z,1.50
2022-09-20T14:33:22.177Z,1.40
2022-09-20T14:35:53.624Z,1.50
2022-09-20T14:38:26.316Z,1.55
2022-09-20T14:40:55.063Z,1.33
2022-09-20T14:43:28.176Z,1.30
2022-09-20T14:45:58.886Z,1.42
2022-09-20T14:48:38.389Z,1.38
2022-09-20T14:51:23.748Z,1.30
2022-09-20T14:53:54.167Z,1.15
2022-09-20T14:56:34.912Z,1.25
2022-09-20T14:59:25.441Z,1.60
2022-09-20T15:02:04.627Z,1.17
2022-09-20T15:04:38.164Z,1.10
2022-09-20T15:07:11.970Z,1.10
2022-09-20T15:09:40.959Z,1.10
2022-09-20T15:12:16.224Z,1.10
2022-09-20T15:14:45.311Z,1.13
2022-09-20T15:17:17.458Z,1.00
2022-09-20T15:19:46.522Z,1.13
2022-09-20T15:22:17.538Z,1.23
2022-09-20T15:24:46.675Z,0.98
2022-09-20T15:27:16.050Z,1.10
2022-09-20T15:29:45.700Z,1.13
2022-09-20T15:32:14.515Z,1.20
2022-09-20T15:34:43.130Z,1.20
2022-09-20T15:37:11.691Z,1.10
2022-09-20T15:39:44.330Z,1.20
2022-09-20T15:42:13.062Z,1.40
2022-09-20T15:44:41.606Z,1.30
2022-09-20T15:47:14.105Z,1.20
2022-09-20T15:49:47.645Z,1.23
2022-09-20T15:52:16.330Z,1.20
2022-09-20T15:54:46.433Z,1.00
2022-09-20T15:57:15.061Z,1.10
2022-09-20T15:59:43.591Z,1.40
2022-09-20T16:02:13.809Z,1.65
2022-09-20T16:04:42.649Z,1.23
2022-09-20T16:07:11.314Z,1.65
2022-09-20T16:09:39.885Z,1.50
2022-09-20T16:12:10.121Z,1.70
2022-09-20T16:14:39.946Z,1.20
2022-09-20T16:17:09.341Z,1.40
2022-09-20T16:19:39.252Z,1.40
2022-09-20T16:22:08.367Z,1.40
2022-09-20T16:24:38.212Z,1.33
2022-09-20T16:27:10.249Z,1.23
2022-09-20T16:29:39.264Z,1.40
2022-09-20T16:32:08.500Z,1.75
2022-09-20T16:34:38.996Z,1.20
2022-09-20T16:37:12.928Z,1.50
2022-09-20T16:39:42.834Z,1.58
2022-09-20T16:42:16.166Z,1.48
2022-09-20T16:44:46.416Z,1.75
2022-09-20T16:47:47.484Z,1.70
2022-09-20T16:50:40.956Z,1.90
2022-09-20T16:53:35.060Z,1.40
2022-09-20T17:06:02.824Z,1.80
2022-09-20T17:13:27.688Z,1.90
2022-09-20T17:16:59.672Z,1.80
2022-09-20T17:20:35.204Z,1.60
2022-09-20T17:26:51.257Z,1.57
2022-09-20T17:29:25.163Z,1.53
2022-09-20T17:32:33.527Z,1.70
2022-09-20T17:35:34.701Z,1.80
2022-09-20T17:38:12.306Z,1.90
2022-09-20T17:40:52.652Z,1.47
2022-09-20T17:44:35.564Z,1.80
2022-09-20T17:47:56.326Z,1.80
2022-09-20T17:50:26.000Z,1.60
2022-09-20T17:52:55.523Z,1.60
2022-09-20T17:55:25.085Z,1.83
2022-09-20T17:57:55.979Z,1.80
2022-09-20T18:00:27.236Z,2.30
2022-09-20T18:02:56.787Z,1.80
2022-09-20T18:05:25.910Z,1.63
2022-09-20T18:07:58.617Z,2.20
2022-09-20T18:10:44.299Z,2.10
2022-09-20T18:13:28.767Z,2.33
2022-09-20T18:16:05.834Z,1.90
2022-09-20T18:21:28.571Z,1.93
2022-09-20T18:24:03.050Z,1.87
2022-09-20T18:26:47.587Z,2.10
2022-09-20T18:29:21.299Z,2.30
2022-09-20T18:31:54.908Z,1.90
2022-09-20T18:34:34.293Z,1.80
2022-09-20T18:37:09.098Z,1.97
2022-09-20T18:39:42.111Z,2.43
2022-09-20T18:42:12.374Z,2.07
2022-09-20T18:44:55.651Z,1.80
2022-09-20T18:47:52.506Z,1.83
2022-09-20T18:50:30.214Z,2.20
2022-09-20T18:53:37.289Z,2.20
2022-09-20T18:56:32.146Z,1.93
2022-09-20T18:59:08.870Z,2.00
2022-09-20T19:09:30.630Z,1.97
2022-09-20T19:12:19.254Z,1.90
2022-09-20T19:16:00.936Z,1.70
2022-09-20T19:19:11.449Z,1.70
2022-09-20T19:22:11.730Z,1.87
2022-09-20T19:25:20.534Z,2.00
2022-09-20T19:28:23.418Z,1.80
2022-09-20T19:32:11.074Z,1.90
2022-09-20T19:35:49.773Z,1.53
2022-09-20T19:38:58.250Z,1.57
2022-09-20T19:41:59.693Z,2.07
2022-09-20T19:45:15.213Z,1.73
2022-09-20T19:47:56.880Z,2.00
2022-09-20T19:50:54.520Z,2.07
2022-09-20T19:53:56.811Z,1.70
2022-09-20T20:01:57.624Z,1.93
2022-09-20T20:04:35.977Z,2.13
2022-09-20T20:07:25.158Z,2.10
2022-09-20T20:17:17.811Z,1.90
2022-09-20T20:20:41.577Z,2.30
2022-09-20T20:23:49.219Z,2.40
2022-09-20T20:26:39.203Z,2.13
2022-09-20T20:33:00.566Z,2.23
2022-09-20T20:36:05.505Z,2.30
2022-09-20T20:38:59.374Z,2.60
2022-09-20T20:42:05.759Z,2.70
2022-09-20T20:45:08.041Z,2.77
2022-09-20T20:47:55.246Z,2.00
2022-09-20T20:55:12.071Z,2.60
2022-09-20T20:58:54.564Z,2.30
2022-09-20T21:01:58.058Z,2.40
2022-09-20T21:04:36.109Z,2.27
2022-09-20T21:07:32.319Z,2.60
2022-09-20T21:14:10.691Z,2.33
2022-09-20T21:17:08.662Z,1.90
2022-09-20T21:20:12.331Z,2.60
2022-09-20T21:26:48.739Z,2.30
2022-09-20T21:29:54.954Z,2.10
2022-09-20T21:33:07.213Z,2.30
2022-09-20T21:36:40.297Z,2.60
2022-09-20T21:40:19.733Z,2.87
2022-09-20T21:43:32.331Z,2.40
2022-09-20T21:46:37.205Z,2.67
2022-09-20T21:53:14.810Z,2.83
2022-09-20T21:56:19.366Z,3.17
2022-09-20T21:59:15.364Z,2.80
2022-09-20T22:02:19.531Z,3.10
2022-09-20T22:05:39.915Z,2.47
2022-09-20T22:08:23.243Z,3.27
2022-09-20T22:11:27.667Z,3.27
2022-09-20T22:21:49.322Z,2.50
2022-09-20T22:27:48.665Z,2.70
2022-09-20T22:30:54.023Z,2.50
2022-09-20T22:33:57.193Z,3.00
2022-09-20T22:36:55.626Z,3.03
2022-09-20T22:39:48.297Z,2.80
2022-09-20T22:42:46.698Z,2.80
2022-09-20T22:45:34.148Z,2.83
2022-09-20T22:48:12.930Z,2.63
2022-09-20T22:50:50.865Z,2.80
2022-09-20T22:54:01.921Z,3.07
2022-09-20T22:57:17.773Z,2.60
2022-09-20T23:06:11.455Z,3.20
2022-09-20T23:12:14.578Z,3.33
2022-09-20T23:15:22.384Z,3.13
2022-09-20T23:21:08.459Z,3.13
2022-09-20T23:24:10.533Z,3.00
2022-09-20T23:30:56.638Z,2.87
2022-09-20T23:34:23.460Z,3.40
2022-09-20T23:37:08.315Z,3.13
2022-09-20T23:40:10.262Z,2.97
2022-09-20T23:43:18.111Z,3.10
2022-09-20T23:45:53.531Z,3.40
2022-09-20T23:49:19.660Z,3.67
2022-09-20T23:52:40.171Z,3.10
2022-09-20T23:55:44.448Z,3.37
2022-09-20T23:58:33.232Z,3.23
